Latest Weather Observations for Paraburdoo

IDW60801

Issued at 1:33 pm WST Sunday 4 December 2016 (issued every 30 minutes, with the page automatically refreshed every 10 minutes)

About weather observations | Map of weather stations | Latest weather observations for WA | Other Formats
Station Details ID: 007185 Name: PARABURDOO AERO Lat: -23.17 Lon: 117.75 Height: 423.7 m
Data from the previous 72 hours. | See also: Recent months at Paraburdoo
Date/Time
WST
Temp
°C
App
Temp
°C
Dew
Point
°C
Rel
Hum
%
Delta-T
°C
Wind Press
QNH
hPa
Press
MSL
hPa
Rain since
9am
mm
Dir  Spd
km/h
Gust
km/h
Spd
kts
Gust
kts
04/01:30pm 38.2 31.4 -1.8 8 20.0 W 24 43 13 23 1006.9 1003.3 0.0
04/01:05pm 38.2 31.8 -1.8 8 20.0 WNW 22 43 12 23 1007.3 1003.7 0.0
04/01:00pm 37.9 32.1 -0.4 9 19.5 W 20 41 11 22 1007.3 1003.7 0.0
04/12:30pm 38.2 33.3 -0.2 9 19.6 NW 15 24 8 13 1007.6 1004.0 0.0
04/12:00pm 36.7 32.6 0.1 10 18.7 NW 11 28 6 15 1008.0 1004.4 0.0
04/11:30am 36.2 32.3 1.1 11 18.1 N 11 22 6 12 1008.8 1005.2 0.0
04/11:00am 34.4 29.7 0.9 12 17.1 WNW 15 22 8 12 1009.1 1005.5 0.0
04/10:30am 35.2 31.6 0.3 11 17.7 NNE 9 20 5 11 1009.3 1005.7 0.0
04/10:00am 33.0 29.4 0.9 13 16.2 NNE 9 15 5 8 1009.5 1005.9 0.0
04/09:30am 31.5 28.8 3.5 17 14.6 WSW 7 9 4 5 1009.7 1006.1 0.0
04/09:00am 30.3 27.3 4.1 19 13.7 SE 9 17 5 9 1009.9 1006.3 0.0
04/08:30am 29.3 25.9 4.0 20 13.1 S 11 17 6 9 1010.3 1006.7 0.0
04/08:00am 28.6 26.5 6.7 25 11.9 SSE 7 13 4 7 1010.1 1006.5 0.0
04/07:30am 27.1 25.3 7.0 28 10.9 NNW 6 7 3 4 1010.3 1006.7 0.0
04/07:00am 25.8 23.9 7.4 31 9.9 WSW 7 9 4 5 1010.2 1006.6 0.0
04/06:30am 23.7 23.1 7.3 35 8.7 CALM 0 0 0 0 1010.1 1006.5 0.0
04/06:00am 23.0 21.6 7.1 36 8.4 W 4 7 2 4 1009.7 1006.1 0.0
04/05:30am 23.9 21.6 7.5 35 8.8 W 9 11 5 6 1009.8 1006.2 0.0
04/05:00am 24.0 22.5 8.4 37 8.5 WSW 6 7 3 4 1009.8 1006.2 0.0
04/04:30am 24.5 22.9 8.9 37 8.6 W 7 9 4 5 1009.5 1005.9 0.0
04/04:00am 22.3 21.6 6.9 37 8.1 CALM 0 0 0 0 1009.4 1005.8 0.0
04/03:30am 23.7 22.1 8.2 37 8.4 WSW 6 7 3 4 1009.2 1005.6 0.0
04/03:00am 26.0 24.2 9.4 35 9.3 W 9 11 5 6 1009.0 1005.4 0.0
04/02:30am 26.8 25.0 9.6 34 9.7 WSW 9 11 5 6 1009.0 1005.4 0.0
04/02:00am 27.2 24.6 9.5 33 10.0 WNW 13 17 7 9 1009.1 1005.5 0.0
04/01:30am 27.9 24.9 9.2 31 10.5 WNW 15 20 8 11 1009.0 1005.4 0.0
04/01:00am 28.3 25.5 8.6 29 11.0 WNW 13 20 7 11 1008.8 1005.2 0.0
04/12:30am 29.1 25.6 8.7 28 11.5 WNW 17 20 9 11 1008.9 1005.3 0.0
04/12:00am 29.4 26.3 7.3 25 12.2 NW 13 15 7 8 1009.2 1005.6 0.0
 
Date/Time
WST
Temp
°C
App
Temp
°C
Dew
Point
°C
Rel
Hum
%
Delta-T
°C
Wind Press
QNH
hPa
Press
MSL
hPa
Rain since
9am
mm
Dir  Spd
km/h
Gust
km/h
Spd
kts
Gust
kts
03/11:30pm 30.6 25.8 4.4 19 13.8 NW 19 28 10 15 1009.2 1005.6 0.0
03/11:00pm 31.2 25.6 -2.7 11 15.9 NW 17 24 9 13 1009.0 1005.4 0.0
03/10:30pm 32.0 26.5 -2.1 11 16.3 WNW 17 26 9 14 1008.8 1005.2 0.0
03/10:00pm 32.6 26.0 -2.9 10 16.8 WNW 22 30 12 16 1008.4 1004.8 0.0
03/09:30pm 33.4 26.9 -2.3 10 17.1 WNW 22 30 12 16 1008.3 1004.7 0.0
03/09:00pm 33.6 27.7 -2.2 10 17.3 WNW 19 30 10 16 1008.0 1004.4 0.0
03/08:30pm 34.6 28.2 -1.4 10 17.7 WNW 22 30 12 16 1007.5 1003.9 0.0
03/08:00pm 35.1 27.8 -2.5 9 18.2 WNW 26 35 14 19 1007.0 1003.4 0.0
03/07:30pm 35.7 28.1 -2.0 9 18.5 WNW 28 37 15 20 1006.7 1003.1 0.0
03/07:00pm 36.5 28.6 -1.4 9 18.9 W 30 37 16 20 1006.2 1002.5 0.0
03/06:30pm 37.4 29.0 -2.4 8 19.6 W 32 41 17 22 1005.7 1002.1 0.0
03/06:00pm 38.3 30.4 -1.7 8 20.1 W 30 44 16 24 1005.2 1001.6 0.0
03/05:30pm 38.5 30.4 0.0 9 19.8 W 32 44 17 24 1004.8 1001.2 0.0
03/05:00pm 39.7 31.6 0.9 9 20.4 W 33 44 18 24 1004.5 1000.9 0.0
03/04:30pm 39.0 31.2 1.9 10 19.7 W 32 41 17 22 1004.5 1000.9 0.0
03/04:00pm 39.5 32.5 2.2 10 20.0 W 28 35 15 19 1004.5 1000.9 0.0
03/03:30pm 39.0 32.8 1.9 10 19.7 WNW 24 48 13 26 1004.5 1000.9 0.0
03/03:00pm 39.7 34.3 2.4 10 20.1 W 20 33 11 18 1004.9 1001.3 0.0
03/02:30pm 39.7 33.8 3.7 11 19.7 W 24 37 13 20 1005.4 1001.8 0.0
03/02:00pm 39.9 34.2 5.1 12 19.5 WNW 24 39 13 21 1005.5 1001.9 0.0
03/01:30pm 38.0 33.3 5.9 14 18.0 NW 20 39 11 21 1006.2 1002.5 0.0
03/01:00pm 38.7 33.3 6.4 14 18.4 NNW 24 39 13 21 1006.5 1002.8 0.0
03/12:30pm 38.2 33.5 6.0 14 18.1 NW 20 32 11 17 1006.8 1003.2 0.0
03/12:00pm 38.2 34.1 6.0 14 18.1 NNW 17 26 9 14 1007.1 1003.5 0.0
03/11:30am 36.8 33.0 5.9 15 17.2 WSW 15 22 8 12 1007.6 1004.0 0.0
03/11:00am 35.7 32.5 5.1 15 16.8 WSW 11 22 6 12 1007.9 1004.3 0.0
03/10:30am 35.2 33.1 6.5 17 16.0 SW 7 24 4 13 1008.3 1004.7 0.0
03/10:00am 34.1 31.2 8.0 20 14.9 WSW 13 22 7 12 1008.7 1005.0 0.0
03/09:30am 33.2 30.0 8.6 22 14.1 WNW 15 20 8 11 1008.9 1005.3 0.0
03/09:00am 32.3 29.8 9.8 25 13.1 W 13 24 7 13 1008.9 1005.3 0.0
03/08:30am 31.2 28.0 10.0 27 12.3 WNW 17 24 9 13 1009.0 1005.4 0.0
03/08:00am 30.3 27.2 10.3 29 11.6 W 17 22 9 12 1008.8 1005.2 0.0
03/07:30am 29.4 26.2 10.0 30 11.1 W 17 22 9 12 1008.8 1005.2 0.0
03/07:00am 28.8 25.1 9.5 30 11.0 W 19 24 10 13 1008.5 1004.9 0.0
03/06:30am 28.0 24.6 9.3 31 10.5 W 17 22 9 12 1008.2 1004.6 0.0
03/06:00am 26.4 24.0 8.8 33 9.8 WNW 11 13 6 7 1008.2 1004.6 0.0
03/05:30am 25.1 22.3 8.6 35 9.1 WNW 13 15 7 8 1008.0 1004.4 0.0
03/05:00am 25.7 24.3 8.7 34 9.4 NW 6 7 3 4 1007.8 1004.2 0.0
03/04:30am 26.7 24.2 8.2 31 10.2 W 11 13 6 7 1007.4 1003.8 0.0
03/04:00am 27.7 25.3 8.6 30 10.7 W 11 17 6 9 1007.4 1003.8 0.0
03/03:30am 28.3 25.3 9.1 30 10.8 WNW 15 17 8 9 1007.2 1003.6 0.0
03/03:00am 28.7 25.5 8.4 28 11.3 WNW 15 19 8 10 1007.0 1003.4 0.0
03/02:30am 29.2 25.6 6.6 24 12.3 WNW 15 20 8 11 1006.9 1003.3 0.0
03/02:00am 29.7 25.8 3.6 19 13.5 WNW 13 17 7 9 1006.7 1003.1 0.0
03/01:30am 30.6 25.8 2.8 17 14.3 WNW 17 22 9 12 1006.5 1002.8 0.0
03/01:00am 31.1 26.1 1.4 15 15.0 WNW 17 22 9 12 1006.6 1003.0 0.0
03/12:30am 31.9 26.5 1.1 14 15.5 WNW 19 24 10 13 1006.6 1003.0 0.0
03/12:00am 32.4 26.8 1.5 14 15.7 NW 20 28 11 15 1006.8 1003.2 0.0
 
Date/Time
WST
Temp
°C
App
Temp
°C
Dew
Point
°C
Rel
Hum
%
Delta-T
°C
Wind Press
QNH
hPa
Press
MSL
hPa
Rain since
9am
mm
Dir  Spd
km/h
Gust
km/h
Spd
kts
Gust
kts
02/11:30pm 32.9 28.0 1.9 14 15.9 NW 17 22 9 12 1007.1 1003.5 0.0
02/11:00pm 33.5 28.1 1.3 13 16.4 NW 19 24 10 13 1007.3 1003.7 0.0
02/10:30pm 33.7 29.1 3.5 15 16.0 NW 17 26 9 14 1007.4 1003.8 0.0
02/10:00pm 35.1 29.2 1.5 12 17.4 NW 22 37 12 20 1007.4 1003.8 0.0
02/09:30pm 34.2 30.1 8.0 20 14.9 N 19 24 10 13 1007.2 1003.6 0.0
02/09:00pm 34.7 29.6 7.7 19 15.4 N 24 30 13 16 1006.8 1003.2 0.0
02/08:30pm 34.8 30.9 8.5 20 15.1 NNW 19 28 10 15 1006.7 1003.1 0.0
02/08:00pm 35.8 32.6 5.1 15 16.9 ENE 11 20 6 11 1006.3 1002.6 0.0
02/07:30pm 36.2 32.3 7.3 17 16.4 NNE 17 24 9 13 1006.3 1002.6 0.0
02/07:00pm 38.6 32.7 1.6 10 19.6 W 22 32 12 17 1005.2 1001.6 0.0
02/06:30pm 39.0 32.4 1.9 10 19.7 WSW 26 32 14 17 1004.3 1000.6 0.0
02/06:00pm 39.8 33.7 2.5 10 20.1 WSW 24 37 13 20 1004.1 1000.4 0.0
02/05:30pm 40.4 33.9 2.9 10 20.3 WSW 26 41 14 22 1003.7 1000.0 0.0
02/05:00pm 41.4 35.2 2.2 9 21.2 WNW 24 39 13 21 1003.4 999.8 0.0
02/04:30pm 40.3 34.6 2.8 10 20.3 W 22 37 12 20 1003.7 1000.0 0.0
02/04:02pm 41.4 34.4 2.2 9 21.2 W 28 46 15 25 1003.5 999.9 0.0
02/04:00pm 41.2 35.0 2.0 9 21.1 WSW 24 39 13 21 1003.7 1000.0 0.0
02/03:30pm 40.8 34.5 1.7 9 20.9 WNW 24 39 13 21 1004.1 1000.4 0.0
02/03:00pm 41.4 34.2 0.5 8 21.6 W 28 43 15 23 1004.4 1000.8 0.0
02/02:39pm 41.2 35.9 2.0 9 21.1 NW 19 43 10 23 1004.9 1001.3 0.0
02/02:30pm 39.9 34.9 1.1 9 20.4 NNW 17 30 9 16 1004.9 1001.3 0.0
02/02:00pm 41.7 35.9 2.4 9 21.4 W 22 39 12 21 1005.3 1001.7 0.0
02/01:30pm 40.7 36.7 3.1 10 20.5 NNW 13 26 7 14 1005.8 1002.2 0.0
02/01:15pm 40.4 32.8 2.9 10 20.3 WNW 32 48 17 26 1005.9 1002.3 0.0
02/01:00pm 39.5 35.0 2.2 10 20.0 NW 15 32 8 17 1006.0 1002.4 0.0
02/12:30pm 40.5 34.4 3.0 10 20.4 WNW 24 37 13 20 1006.4 1002.7 0.0
02/12:00pm 38.6 34.0 1.6 10 19.5 NW 15 24 8 13 1006.8 1003.2 0.0
02/11:30am 38.5 34.7 1.5 10 19.5 SSW 11 22 6 12 1007.2 1003.6 0.0
02/11:00am 38.1 33.8 1.2 10 19.3 NW 13 24 7 13 1007.8 1004.2 0.0
02/10:30am 37.3 33.5 -0.9 9 19.2 NNE 9 15 5 8 1008.0 1004.4 0.0
02/10:00am 36.4 32.7 -0.1 10 18.5 E 9 13 5 7 1008.4 1004.8 0.0
02/09:30am 34.5 31.7 2.1 13 16.8 WSW 6 11 3 6 1008.8 1005.2 0.0
02/09:00am 33.5 30.7 3.3 15 15.9 SSW 7 13 4 7 1009.0 1005.4 0.0
02/08:30am 32.6 29.5 3.5 16 15.3 W 9 13 5 7 1009.1 1005.5 0.0
02/08:00am 31.2 28.3 4.9 19 14.0 WSW 9 15 5 8 1009.0 1005.4 0.0
02/07:30am 30.4 27.3 5.6 21 13.3 W 11 15 6 8 1008.8 1005.2 0.0
02/07:00am 29.3 27.2 6.7 24 12.3 WNW 7 11 4 6 1008.8 1005.2 0.0
02/06:30am 27.3 25.6 6.1 26 11.3 NW 4 7 2 4 1008.4 1004.8 0.0
02/06:00am 25.4 24.2 4.5 26 10.7 CALM 0 0 0 0 1008.4 1004.8 0.0
02/05:30am 22.2 20.7 2.8 28 9.4 CALM 0 0 0 0 1008.2 1004.6 0.0
02/05:00am 23.0 20.4 3.0 27 9.8 NE 6 7 3 4 1007.8 1004.2 0.0
02/04:30am 23.5 22.1 3.4 27 10.0 CALM 0 7 0 4 1007.6 1004.0 0.0
02/04:00am 23.0 21.5 3.0 27 9.8 CALM 0 0 0 0 1007.5 1003.9 0.0
02/03:30am 23.4 20.8 3.4 27 9.9 NW 6 6 3 3 1007.3 1003.7 0.0
02/03:00am 25.4 24.1 4.0 25 10.9 CALM 0 0 0 0 1007.2 1003.6 0.0
02/02:30am 25.5 24.0 2.9 23 11.2 CALM 0 0 0 0 1007.2 1003.6 0.0
02/02:00am 27.2 24.8 4.3 23 11.8 N 6 6 3 3 1007.1 1003.5 0.0
02/01:30am 28.4 25.9 4.0 21 12.6 WNW 6 7 3 4 1007.1 1003.5 0.0
02/01:00am 29.6 26.9 3.6 19 13.5 W 7 9 4 5 1007.2 1003.6 0.0
02/12:30am 30.8 27.0 3.8 18 14.1 W 13 17 7 9 1007.2 1003.6 0.0
02/12:00am 31.8 27.2 3.8 17 14.7 W 17 20 9 11 1007.6 1004.0 0.0
 
Date/Time
WST
Temp
°C
App
Temp
°C
Dew
Point
°C
Rel
Hum
%
Delta-T
°C
Wind Press
QNH
hPa
Press
MSL
hPa
Rain since
9am
mm
Dir  Spd
km/h
Gust
km/h
Spd
kts
Gust
kts
01/11:30pm 31.2 28.2 4.1 18 14.3 WNW 9 13 5 7 1007.8 1004.2 0.0
01/11:00pm 32.9 28.7 3.8 16 15.4 W 15 20 8 11 1007.7 1004.1 0.0
01/10:30pm 33.8 29.2 3.6 15 16.0 WSW 17 19 9 10 1007.6 1004.0 0.0
01/10:00pm 34.5 29.4 4.1 15 16.3 W 20 28 11 15 1007.3 1003.7 0.0
01/09:30pm 34.1 30.4 4.7 16 15.9 W 13 17 7 9 1007.0 1003.4 0.0
01/09:00pm 34.7 31.4 4.3 15 16.4 WSW 11 11 6 6 1006.8 1003.2 0.0
01/08:30pm 35.3 32.2 3.8 14 16.9 WSW 9 13 5 7 1006.6 1003.0 0.0
01/08:00pm 36.3 31.9 4.6 14 17.3 WSW 17 20 9 11 1006.3 1002.6 0.0
01/07:30pm 36.9 32.0 4.0 13 17.8 WSW 19 24 10 13 1006.0 1002.4 0.0
01/07:00pm 37.5 32.3 3.3 12 18.4 WSW 20 28 11 15 1005.6 1002.0 0.0
01/06:30pm 38.3 32.9 2.7 11 19.0 WSW 20 30 11 16 1005.4 1001.8 0.0
01/06:00pm 39.3 33.8 2.1 10 19.9 WSW 20 32 11 17 1005.1 1001.5 0.0
01/05:30pm 39.1 34.2 1.9 10 19.7 WSW 17 28 9 15 1005.0 1001.4 0.0
01/05:00pm 40.2 34.1 2.8 10 20.3 WSW 24 32 13 17 1005.0 1001.4 0.0
01/04:30pm 39.7 33.2 2.4 10 20.0 W 26 39 14 21 1005.2 1001.6 0.0
01/04:25pm 40.2 33.3 2.8 10 20.2 W 28 39 15 21 1005.1 1001.5 0.0
01/04:00pm 39.5 34.6 2.2 10 20.0 SW 17 32 9 17 1005.3 1001.7 0.0
01/03:30pm 41.0 35.1 1.9 9 21.0 WNW 22 43 12 23 1005.5 1001.9 0.0
01/03:00pm 40.5 34.8 3.0 10 20.4 WSW 22 35 12 19 1005.9 1002.3 0.0
01/02:30pm 39.0 34.1 1.9 10 19.7 WSW 17 26 9 14 1006.5 1002.8 0.0
01/02:00pm 39.8 35.0 2.5 10 20.1 WNW 17 32 9 17 1007.0 1003.4 0.0

Other Formats:

Comma delimited format used in spreadsheet applications
http://www.bom.gov.au/fwo/IDW60801/IDW60801.94316.axf

JavaScript Object Notation format (JSON) in row-major order
http://www.bom.gov.au/fwo/IDW60801/IDW60801.94316.json